Time;durP1;ratioP1;P1;durP2;ratioP2;P2;SDS_P1;SDS_P2;PMS_P1;PMS_P2;Temp;Humidity;BMP_temperature;BMP_pressure;BME280_temperature;BME280_humidity;BME280_pressure;Samples;Min_cycle;Max_cycle;Signal;HPM_P1;HPM_P2
2021/04/21 00:01:14;;;;;;;3.20;1.30;;;24.50;72.30;;;;;;4979240;28;20266;-97
2021/04/21 00:03:46;;;;;;;5.27;1.33;;;24.60;72.60;;;;;;4978700;28;20246;-89
2021/04/21 00:06:19;;;;;;;1.87;1.37;;;24.50;70.80;;;;;;4979117;28;20214;-90
2021/04/21 00:08:51;;;;;;;1.87;1.30;;;24.40;72.70;;;;;;4979615;28;20320;-91
2021/04/21 00:11:21;;;;;;;2.37;1.17;;;24.40;73.70;;;;;;4973644;28;20197;-90
2021/04/21 00:13:52;;;;;;;2.37;1.13;;;24.10;73.70;;;;;;4978099;28;20286;-90
2021/04/21 00:16:22;;;;;;;2.97;1.20;;;24.00;76.30;;;;;;4979526;28;20683;-91
2021/04/21 00:18:52;;;;;;;3.43;1.00;;;24.30;75.20;;;;;;4979176;28;20211;-90
2021/04/21 00:21:25;;;;;;;2.60;1.20;;;24.20;74.00;;;;;;4977908;28;20600;-91
2021/04/21 00:23:55;;;;;;;1.27;0.90;;;24.10;72.30;;;;;;4978340;28;20257;-90
2021/04/21 00:26:26;;;;;;;2.10;1.40;;;23.80;73.00;;;;;;4979363;28;20227;-90
2021/04/21 00:28:56;;;;;;;3.57;1.60;;;23.70;74.60;;;;;;4978005;28;20211;-91
2021/04/21 00:31:28;;;;;;;3.60;1.27;;;23.60;75.40;;;;;;4977644;28;20239;-90
2021/04/21 00:34:01;;;;;;;1.90;1.03;;;23.70;73.80;;;;;;4977778;28;20250;-91
2021/04/21 00:36:37;;;;;;;3.53;1.03;;;23.70;75.00;;;;;;4978999;28;20229;-91
2021/04/21 00:39:10;;;;;;;2.40;1.10;;;23.70;73.20;;;;;;4976812;28;20210;-90
2021/04/21 00:41:49;;;;;;;1.63;1.17;;;23.70;73.60;;;;;;4977096;28;20214;-90
2021/04/21 00:44:28;;;;;;;1.53;1.13;;;23.60;73.70;;;;;;4977965;28;20210;-91
2021/04/21 00:47:03;;;;;;;2.30;0.97;;;23.60;73.00;;;;;;4978280;28;20695;-90
2021/04/21 00:49:47;;;;;;;4.20;1.00;;;23.70;72.20;;;;;;4979080;28;20226;-90
2021/04/21 00:52:25;;;;;;;3.07;1.30;;;23.70;72.60;;;;;;4995945;28;20194;-91
2021/04/21 00:55:03;;;;;;;4.33;1.23;;;23.70;73.00;;;;;;4997932;28;20206;-90
2021/04/21 00:57:43;;;;;;;3.03;1.17;;;23.70;73.40;;;;;;4994107;28;20221;-90
2021/04/21 01:00:17;;;;;;;1.27;1.00;;;23.70;71.80;;;;;;4980952;28;20207;-90
2021/04/21 01:02:53;;;;;;;2.50;1.03;;;23.60;71.00;;;;;;4979138;28;20257;-90
2021/04/21 01:05:25;;;;;;;2.57;1.37;;;23.80;71.60;;;;;;4978483;28;20206;-90
2021/04/21 01:08:00;;;;;;;5.27;1.30;;;24.00;71.20;;;;;;4978248;28;20266;-90
2021/04/21 01:10:36;;;;;;;2.00;1.10;;;24.10;70.40;;;;;;4977180;28;20317;-90
2021/04/21 01:13:06;;;;;;;4.60;1.13;;;24.40;70.30;;;;;;4975371;28;20222;-90
2021/04/21 01:15:41;;;;;;;2.23;1.17;;;24.30;69.80;;;;;;4977170;28;20222;-90
2021/04/21 01:18:14;;;;;;;2.10;1.00;;;24.20;70.00;;;;;;4977309;28;20582;-91
2021/04/21 01:20:53;;;;;;;1.60;1.10;;;24.40;70.60;;;;;;4977512;28;20254;-91
2021/04/21 01:24:10;;;;;;;1.17;1.00;;;24.40;70.50;;;;;;4975218;28;20587;-91
2021/04/21 01:26:57;;;;;;;3.57;1.40;;;24.40;70.10;;;;;;4976947;28;20286;-91
2021/04/21 01:29:37;;;;;;;4.57;1.20;;;24.40;71.20;;;;;;4977079;28;20238;-91
2021/04/21 01:32:15;;;;;;;1.47;1.17;;;24.30;71.30;;;;;;4978761;28;20266;-91
2021/04/21 01:34:49;;;;;;;1.40;1.00;;;24.20;72.00;;;;;;4974973;28;20227;-92
2021/04/21 01:37:27;;;;;;;3.90;1.10;;;23.80;72.00;;;;;;4977897;28;20742;-92
2021/04/21 01:40:04;;;;;;;6.13;1.50;;;23.40;73.10;;;;;;4979455;28;20277;-92
2021/04/21 01:42:37;;;;;;;1.90;1.10;;;22.90;74.10;;;;;;4975693;28;20237;-93
2021/04/21 01:45:12;;;;;;;3.77;1.70;;;22.70;75.40;;;;;;4979221;28;20270;-92
2021/04/21 01:47:44;;;;;;;2.33;1.40;;;22.50;75.70;;;;;;4979428;28;20676;-92
2021/04/21 01:50:16;;;;;;;2.50;1.30;;;22.30;75.90;;;;;;4978654;28;20237;-93
2021/04/21 01:52:56;;;;;;;2.70;1.40;;;22.10;75.30;;;;;;4978084;28;20238;-91
2021/04/21 01:55:47;;;;;;;2.20;1.30;;;21.90;76.60;;;;;;4977897;28;20211;-93
2021/04/21 01:58:32;;;;;;;2.60;1.20;;;21.70;77.90;;;;;;4982432;28;20211;-91
2021/04/21 02:01:12;;;;;;;1.50;1.37;;;21.40;78.00;;;;;;4983693;28;20218;-92
2021/04/21 02:03:48;;;;;;;3.90;1.47;;;21.20;78.10;;;;;;4984746;28;20207;-91
2021/04/21 02:06:50;;;;;;;5.20;1.33;;;21.20;77.90;;;;;;4986207;28;20226;-90
2021/04/21 02:10:05;;;;;;;1.70;1.00;;;21.10;78.70;;;;;;4984256;28;20211;-90
2021/04/21 02:12:57;;;;;;;2.67;1.20;;;21.00;78.10;;;;;;4965145;28;20210;-92
2021/04/21 02:16:09;;;;;;;2.27;1.20;;;20.90;78.40;;;;;;4976055;28;20229;-92
2021/04/21 02:19:06;;;;;;;1.43;1.17;;;20.60;77.70;;;;;;4978479;28;20337;-92
2021/04/21 02:21:46;;;;;;;3.00;1.20;;;20.30;81.30;;;;;;4976958;28;20391;-92
2021/04/21 02:24:28;;;;;;;5.13;1.30;;;20.00;80.80;;;;;;4977561;28;20570;-92
2021/04/21 02:27:09;;;;;;;4.10;1.37;;;19.80;82.20;;;;;;4976867;28;20218;-93
2021/04/21 02:29:46;;;;;;;3.47;1.37;;;19.60;81.30;;;;;;4978758;28;20703;-92
2021/04/21 02:32:26;;;;;;;6.17;1.50;;;19.40;82.70;;;;;;4975129;28;20311;-93
2021/04/21 02:35:07;;;;;;;2.70;1.50;;;19.30;83.20;;;;;;4977248;28;20331;-93
2021/04/21 02:37:52;;;;;;;3.67;1.60;;;19.20;83.00;;;;;;4977361;28;20681;-93
2021/04/21 02:40:35;;;;;;;2.63;1.60;;;19.00;84.10;;;;;;4966014;28;20223;-94
2021/04/21 02:43:13;;;;;;;3.37;1.63;;;18.80;83.90;;;;;;4961521;28;20215;-93
2021/04/21 02:45:55;;;;;;;1.87;1.60;;;18.60;85.60;;;;;;4965432;28;20243;-92
2021/04/21 02:48:38;;;;;;;2.63;1.70;;;18.50;85.10;;;;;;4957852;29;20234;-93
2021/04/21 02:51:15;;;;;;;2.27;1.53;;;18.30;88.10;;;;;;4958395;29;20261;-93
2021/04/21 02:53:52;;;;;;;2.23;1.60;;;18.10;88.70;;;;;;4956553;28;20211;-93
2021/04/21 02:56:30;;;;;;;2.63;1.90;;;17.90;90.30;;;;;;4956629;29;20286;-92
2021/04/21 02:59:09;;;;;;;4.83;1.97;;;17.80;90.50;;;;;;4957642;28;20271;-92
2021/04/21 03:01:47;;;;;;;3.90;1.80;;;17.60;90.30;;;;;;4956754;28;20242;-91
2021/04/21 03:04:23;;;;;;;3.10;1.70;;;17.40;91.00;;;;;;4956623;28;20211;-92
2021/04/21 03:06:57;;;;;;;2.73;1.57;;;17.20;91.40;;;;;;4959694;28;20259;-91
2021/04/21 03:09:37;;;;;;;3.67;1.70;;;17.00;92.30;;;;;;4963169;28;20370;-92
2021/04/21 03:12:12;;;;;;;3.67;1.90;;;16.80;92.30;;;;;;4959265;28;20192;-91
2021/04/21 03:14:50;;;;;;;2.43;1.43;;;16.70;92.70;;;;;;4960549;29;20291;-92
2021/04/21 03:17:21;;;;;;;3.10;1.77;;;16.50;92.80;;;;;;4962840;28;20250;-93
2021/04/21 03:19:56;;;;;;;2.40;1.50;;;16.40;92.20;;;;;;4962388;28;20220;-93
2021/04/21 03:22:31;;;;;;;2.63;1.60;;;16.30;93.20;;;;;;4965074;28;20234;-92
2021/04/21 03:25:09;;;;;;;3.37;1.67;;;16.20;93.60;;;;;;4990448;28;20579;-93
2021/04/21 03:27:43;;;;;;;2.43;1.80;;;16.10;93.30;;;;;;4648537;28;10000599;-91
2021/04/21 03:30:17;;;;;;;2.20;1.60;;;16.00;93.70;;;;;;4982237;28;20231;-92
2021/04/21 03:32:50;;;;;;;4.17;1.70;;;15.80;94.10;;;;;;4978144;28;20637;-92
2021/04/21 03:35:26;;;;;;;3.17;1.90;;;15.80;93.90;;;;;;4978557;28;20231;-91
2021/04/21 03:38:07;;;;;;;4.07;1.87;;;15.70;94.50;;;;;;4979529;28;21004;-91
2021/04/21 03:40:39;;;;;;;3.63;2.00;;;15.60;94.40;;;;;;4978722;28;20230;-91
2021/04/21 03:43:10;;;;;;;3.00;1.80;;;15.50;94.00;;;;;;4978237;28;20238;-92
2021/04/21 03:45:42;;;;;;;2.90;2.00;;;15.40;94.40;;;;;;4982440;28;20258;-91
2021/04/21 03:48:14;;;;;;;2.27;1.70;;;15.30;94.90;;;;;;4986842;28;20526;-92
2021/04/21 03:50:46;;;;;;;4.63;1.97;;;15.30;94.10;;;;;;4986870;28;20297;-92
2021/04/21 03:53:19;;;;;;;3.10;2.20;;;15.20;94.30;;;;;;4986754;28;20199;-92
2021/04/21 03:55:55;;;;;;;2.60;1.97;;;15.20;95.30;;;;;;4981403;28;20564;-92
2021/04/21 03:58:29;;;;;;;3.13;1.90;;;15.10;95.80;;;;;;4979058;28;20241;-91
2021/04/21 04:01:02;;;;;;;4.20;3.20;;;14.90;95.80;;;;;;4980703;28;20230;-91
2021/04/21 04:03:35;;;;;;;4.30;3.17;;;14.80;96.10;;;;;;4977186;28;20306;-92
2021/04/21 04:06:11;;;;;;;3.70;2.30;;;14.70;96.00;;;;;;4978590;28;20269;-92
2021/04/21 04:08:48;;;;;;;3.60;2.07;;;14.70;96.20;;;;;;4979167;28;20230;-91
2021/04/21 04:11:20;;;;;;;3.90;2.00;;;14.60;96.60;;;;;;4977740;28;20231;-92
2021/04/21 04:13:55;;;;;;;3.80;2.10;;;14.60;96.50;;;;;;4978084;28;20211;-91
2021/04/21 04:16:28;;;;;;;5.10;2.33;;;14.50;96.80;;;;;;4979170;28;20251;-92
2021/04/21 04:19:01;;;;;;;3.10;2.00;;;14.50;96.80;;;;;;4987649;28;20234;-92
2021/04/21 04:21:39;;;;;;;4.40;2.07;;;14.40;97.40;;;;;;4985214;28;20262;-92
2021/04/21 04:24:14;;;;;;;5.57;2.47;;;14.30;98.10;;;;;;4989064;28;20215;-92
2021/04/21 04:26:45;;;;;;;4.30;2.20;;;14.30;98.30;;;;;;4982131;28;20234;-92
2021/04/21 04:29:15;;;;;;;5.27;2.33;;;14.20;98.20;;;;;;4980475;28;20262;-92
2021/04/21 04:31:45;;;;;;;7.50;3.03;;;14.20;98.40;;;;;;4980566;28;20242;-92
2021/04/21 04:34:21;;;;;;;5.70;2.33;;;14.10;98.50;;;;;;4986838;28;20569;-93
2021/04/21 04:36:55;;;;;;;3.67;2.17;;;14.10;98.60;;;;;;4988754;28;20218;-92
2021/04/21 04:39:28;;;;;;;6.37;3.73;;;14.10;99.50;;;;;;4988278;28;20281;-93
2021/04/21 04:42:00;;;;;;;8.20;3.70;;;14.00;99.10;;;;;;4987942;28;20214;-92
2021/04/21 04:44:31;;;;;;;4.67;2.07;;;14.00;99.90;;;;;;4988155;28;20214;-93
2021/04/21 04:47:06;;;;;;;6.00;2.50;;;14.00;99.60;;;;;;4979241;28;20851;-92
2021/04/21 04:49:47;;;;;;;3.40;1.93;;;14.00;99.30;;;;;;4978511;28;20207;-92
2021/04/21 04:52:22;;;;;;;2.90;1.90;;;14.00;99.80;;;;;;4978330;28;20290;-91
2021/04/21 04:54:55;;;;;;;3.50;2.10;;;14.00;99.90;;;;;;4979723;28;20261;-91
2021/04/21 04:57:27;;;;;;;5.80;2.40;;;14.00;99.90;;;;;;4986780;28;20223;-90
2021/04/21 05:00:01;;;;;;;6.10;2.30;;;13.90;99.90;;;;;;4997707;28;20308;-90
2021/04/21 05:02:36;;;;;;;4.07;2.13;;;13.90;99.90;;;;;;4987848;28;20644;-92
2021/04/21 05:05:09;;;;;;;2.97;2.17;;;13.80;99.90;;;;;;4979240;28;20222;-92
2021/04/21 05:07:43;;;;;;;2.33;2.13;;;13.70;99.90;;;;;;4980495;28;20297;-91
2021/04/21 05:10:23;;;;;;;2.30;1.97;;;13.70;99.90;;;;;;4982070;28;20245;-91
2021/04/21 05:12:58;;;;;;;3.17;2.17;;;13.70;99.90;;;;;;4978800;28;20203;-91
2021/04/21 05:16:11;;;;;;;5.70;2.30;;;13.60;99.90;;;;;;4978472;28;20218;-92
2021/04/21 05:19:17;;;;;;;2.10;1.83;;;13.60;99.90;;;;;;4970003;28;20234;-93
2021/04/21 05:22:33;;;;;;;3.20;2.30;;;13.50;99.90;;;;;;4977275;28;20249;-93
2021/04/21 05:26:04;;;;;;;5.27;2.30;;;13.50;99.90;;;;;;4933129;28;20277;-93
2021/04/21 05:29:08;;;;;;;3.23;1.90;;;13.40;99.90;;;;;;4957680;28;20211;-93
2021/04/21 05:32:13;;;;;;;5.37;2.23;;;13.30;99.90;;;;;;4958113;28;20270;-93
2021/04/21 05:35:15;;;;;;;2.90;1.87;;;13.30;99.90;;;;;;4958310;28;20212;-92
2021/04/21 05:38:41;;;;;;;3.43;2.00;;;13.30;99.90;;;;;;4958157;28;20274;-93
2021/04/21 05:41:51;;;;;;;3.33;2.30;;;13.20;99.90;;;;;;4957678;28;20207;-94
2021/04/21 05:45:15;;;;;;;6.33;2.20;;;13.10;99.90;;;;;;4964894;28;20235;-93
2021/04/21 05:48:18;;;;;;;3.10;2.13;;;13.00;99.90;;;;;;4941233;28;20239;-91
2021/04/21 05:51:31;;;;;;;2.67;1.80;;;13.00;99.90;;;;;;4965586;28;20266;-92
2021/04/21 05:54:32;;;;;;;3.17;2.00;;;12.90;99.90;;;;;;4915900;29;20221;-90
2021/04/21 05:57:53;;;;;;;2.77;1.80;;;12.90;99.90;;;;;;4975725;28;20211;-93
2021/04/21 06:00:56;;;;;;;2.20;1.97;;;12.80;99.90;;;;;;4969772;28;20488;-92
2021/04/21 06:03:26;;;;;;;5.00;2.40;;;12.80;99.90;;;;;;4956299;29;20207;-92
2021/04/21 06:06:04;;;;;;;2.40;2.20;;;12.80;99.90;;;;;;4960966;29;20227;-92
2021/04/21 06:08:35;;;;;;;3.60;2.30;;;12.80;99.90;;;;;;4958764;28;20208;-91
2021/04/21 06:11:16;;;;;;;2.07;1.77;;;12.80;99.90;;;;;;4958714;29;20322;-92
2021/04/21 06:13:51;;;;;;;4.77;2.90;;;12.70;99.90;;;;;;4957252;28;20274;-92
2021/04/21 06:16:22;;;;;;;2.63;2.20;;;12.60;99.90;;;;;;4956651;29;20707;-92
2021/04/21 06:18:56;;;;;;;5.43;2.57;;;12.60;99.90;;;;;;4957171;29;20223;-92
2021/04/21 06:21:26;;;;;;;2.93;2.50;;;12.50;99.90;;;;;;4956736;28;20203;-93
2021/04/21 06:23:57;;;;;;;4.63;2.30;;;12.40;99.90;;;;;;4956720;28;20215;-91
2021/04/21 06:26:29;;;;;;;4.30;2.50;;;12.40;99.90;;;;;;4956842;29;20208;-92
2021/04/21 06:29:02;;;;;;;3.80;2.80;;;12.40;99.90;;;;;;4957635;28;20278;-91
2021/04/21 06:31:37;;;;;;;4.30;2.57;;;12.30;99.90;;;;;;4956839;28;20235;-91
2021/04/21 06:34:08;;;;;;;3.07;2.43;;;12.30;99.90;;;;;;4958036;28;20241;-92
2021/04/21 06:36:44;;;;;;;3.67;2.33;;;12.30;99.90;;;;;;4957477;28;20207;-92
2021/04/21 06:39:18;;;;;;;2.50;2.30;;;12.20;99.90;;;;;;4961995;28;20234;-91
2021/04/21 06:41:54;;;;;;;4.73;2.40;;;12.20;99.90;;;;;;4975391;28;20219;-91
2021/04/21 06:44:42;;;;;;;4.07;2.23;;;12.20;99.90;;;;;;4976259;28;20214;-92
2021/04/21 06:47:14;;;;;;;2.63;2.27;;;12.10;99.90;;;;;;4977391;28;20657;-91
2021/04/21 06:49:44;;;;;;;4.00;2.27;;;12.10;99.90;;;;;;4976948;28;20206;-91
2021/04/21 06:52:15;;;;;;;4.93;2.40;;;12.00;99.90;;;;;;4975634;28;20278;-92
2021/04/21 06:54:45;;;;;;;6.27;2.13;;;12.00;99.90;;;;;;4976769;28;20225;-91
2021/04/21 06:57:30;;;;;;;3.60;2.20;;;12.00;99.90;;;;;;4975067;28;20211;-91
2021/04/21 07:00:12;;;;;;;1.90;1.80;;;12.00;99.90;;;;;;4976893;28;20677;-91
2021/04/21 07:02:45;;;;;;;3.57;2.57;;;11.90;99.90;;;;;;4978924;28;20243;-91
2021/04/21 07:05:34;;;;;;;3.57;2.37;;;11.80;99.90;;;;;;4982896;28;20211;-89
2021/04/21 07:08:11;;;;;;;4.30;2.40;;;11.80;99.90;;;;;;4985580;28;20742;-91
2021/04/21 07:10:45;;;;;;;5.33;2.10;;;11.70;99.90;;;;;;4983410;28;20237;-91
2021/04/21 07:13:20;;;;;;;2.63;2.10;;;11.70;99.90;;;;;;4985331;28;20306;-92
2021/04/21 07:15:55;;;;;;;3.53;2.40;;;11.60;99.90;;;;;;4984231;28;20230;-92
2021/04/21 07:18:29;;;;;;;4.67;2.33;;;11.50;99.90;;;;;;4983292;28;20253;-92
2021/04/21 07:21:02;;;;;;;3.53;2.50;;;11.50;99.90;;;;;;4981211;28;20210;-92
2021/04/21 07:23:36;;;;;;;3.43;2.03;;;11.40;99.90;;;;;;4979577;28;20207;-92
2021/04/21 07:26:07;;;;;;;2.97;2.60;;;11.40;99.90;;;;;;4980747;28;20211;-92
2021/04/21 07:28:38;;;;;;;3.70;2.10;;;11.40;99.90;;;;;;4984318;28;20210;-92
2021/04/21 07:31:15;;;;;;;3.20;2.27;;;11.40;99.90;;;;;;4982299;28;20289;-93
2021/04/21 07:33:46;;;;;;;4.37;2.50;;;11.30;99.90;;;;;;4982749;28;20210;-92
2021/04/21 07:36:20;;;;;;;2.60;2.40;;;11.20;99.90;;;;;;4981028;28;20222;-93
2021/04/21 07:38:51;;;;;;;4.63;2.50;;;11.10;99.90;;;;;;4982331;28;20207;-92
2021/04/21 07:41:34;;;;;;;3.53;2.67;;;11.10;99.90;;;;;;4979369;28;20582;-92
2021/04/21 07:44:06;;;;;;;2.93;2.33;;;11.10;99.90;;;;;;4979653;28;20297;-92
2021/04/21 07:46:39;;;;;;;2.83;2.47;;;11.10;99.90;;;;;;4979891;28;20231;-92
2021/04/21 07:49:10;;;;;;;4.60;2.60;;;11.00;99.90;;;;;;4985254;28;20241;-92
2021/04/21 07:51:44;;;;;;;4.47;2.60;;;11.00;99.90;;;;;;4978460;28;20243;-92
2021/04/21 07:54:28;;;;;;;3.07;2.77;;;11.00;99.90;;;;;;4981450;28;20302;-91
2021/04/21 07:57:06;;;;;;;4.37;2.53;;;11.00;99.90;;;;;;4982031;28;20266;-91
2021/04/21 07:59:38;;;;;;;4.07;2.70;;;11.00;99.90;;;;;;4979407;28;20261;-91
2021/04/21 08:02:17;;;;;;;5.07;2.83;;;11.00;99.90;;;;;;4979025;28;20719;-91
2021/04/21 08:04:54;;;;;;;4.63;2.70;;;11.00;99.90;;;;;;4979955;28;20210;-91
2021/04/21 08:07:34;;;;;;;3.47;2.67;;;10.90;99.90;;;;;;4980296;28;20310;-92
2021/04/21 08:10:08;;;;;;;5.30;2.93;;;10.90;99.90;;;;;;4980033;28;20265;-91
2021/04/21 08:12:40;;;;;;;4.10;2.93;;;10.80;99.90;;;;;;4973526;28;20214;-91
2021/04/21 08:15:13;;;;;;;4.20;2.80;;;10.80;99.90;;;;;;4959342;28;20266;-91
2021/04/21 08:18:01;;;;;;;6.17;2.93;;;10.80;99.90;;;;;;4961104;28;20211;-91
2021/04/21 08:20:34;;;;;;;3.90;2.50;;;10.70;99.90;;;;;;4960744;28;20287;-91
2021/04/21 08:23:26;;;;;;;3.77;2.73;;;10.70;99.90;;;;;;4974245;28;20302;-91
2021/04/21 08:25:56;;;;;;;3.40;2.27;;;10.60;99.90;;;;;;4975752;28;20323;-91
2021/04/21 08:28:26;;;;;;;3.77;2.77;;;10.60;99.90;;;;;;4973608;28;20208;-91
2021/04/21 08:31:00;;;;;;;4.27;2.90;;;10.60;99.90;;;;;;4960914;28;20759;-91
2021/04/21 08:33:32;;;;;;;2.63;2.43;;;10.60;99.90;;;;;;4960326;29;20207;-91
2021/04/21 08:36:03;;;;;;;4.57;2.57;;;10.60;99.90;;;;;;4959893;28;20665;-92
2021/04/21 08:38:34;;;;;;;2.80;2.60;;;10.60;99.90;;;;;;4959644;28;20235;-92
2021/04/21 08:41:04;;;;;;;4.83;2.93;;;10.50;99.90;;;;;;4974157;28;20207;-91
2021/04/21 08:43:37;;;;;;;4.47;2.60;;;10.50;99.90;;;;;;4977279;28;20210;-91
2021/04/21 08:46:10;;;;;;;3.90;3.03;;;10.50;99.90;;;;;;4978348;28;20207;-91
2021/04/21 08:48:44;;;;;;;3.50;2.90;;;10.50;99.90;;;;;;4961670;28;20266;-91
2021/04/21 08:51:17;;;;;;;3.50;2.33;;;10.40;99.90;;;;;;4976967;28;20273;-90
2021/04/21 08:53:54;;;;;;;3.83;2.93;;;10.40;99.90;;;;;;4977853;28;20207;-91
2021/04/21 08:56:25;;;;;;;2.50;2.30;;;10.40;99.90;;;;;;4961178;28;20636;-90
2021/04/21 08:58:56;;;;;;;4.73;2.73;;;10.30;99.90;;;;;;4978075;28;20203;-90
2021/04/21 09:01:27;;;;;;;3.17;2.87;;;10.30;99.90;;;;;;4978355;28;20207;-90
2021/04/21 09:04:00;;;;;;;4.03;2.83;;;10.20;99.90;;;;;;4980995;28;20211;-91
2021/04/21 09:06:30;;;;;;;4.43;2.70;;;10.20;99.90;;;;;;4978542;28;20215;-90
2021/04/21 09:09:02;;;;;;;3.23;2.70;;;10.20;99.90;;;;;;4978465;28;20262;-91
2021/04/21 09:11:34;;;;;;;3.10;2.80;;;10.20;99.90;;;;;;4976878;28;20285;-90
2021/04/21 09:14:07;;;;;;;3.10;2.57;;;10.20;99.90;;;;;;4977621;28;20625;-90
2021/04/21 09:16:38;;;;;;;4.30;2.70;;;10.10;99.90;;;;;;4982687;28;20215;-90
2021/04/21 09:19:13;;;;;;;4.17;2.73;;;10.10;99.90;;;;;;4983137;28;20211;-91
2021/04/21 09:21:44;;;;;;;4.57;2.80;;;10.00;99.90;;;;;;4984820;28;20356;-91
2021/04/21 09:24:27;;;;;;;5.23;2.40;;;10.00;99.90;;;;;;4981887;28;20203;-91
2021/04/21 09:26:58;;;;;;;4.20;2.87;;;9.90;99.90;;;;;;4983215;28;20235;-92
2021/04/21 09:29:32;;;;;;;3.90;2.60;;;9.90;99.90;;;;;;4984861;28;20218;-91
2021/04/21 09:32:11;;;;;;;4.47;2.70;;;9.90;99.90;;;;;;4984047;28;20281;-90
2021/04/21 09:35:02;;;;;;;7.90;2.53;;;9.80;99.90;;;;;;4979318;28;20217;-91
2021/04/21 09:37:34;;;;;;;6.13;3.00;;;9.90;99.90;;;;;;4978148;28;20207;-91
2021/04/21 09:40:06;;;;;;;3.90;2.97;;;9.70;99.90;;;;;;4977623;28;20218;-90
2021/04/21 09:42:37;;;;;;;3.27;2.87;;;9.70;99.90;;;;;;4976270;28;20239;-92
2021/04/21 09:45:09;;;;;;;4.90;3.47;;;9.70;99.90;;;;;;4977160;28;20210;-90
2021/04/21 09:47:39;;;;;;;4.80;3.00;;;9.60;99.90;;;;;;4977953;28;20211;-91
2021/04/21 09:50:14;;;;;;;3.30;3.00;;;9.60;99.90;;;;;;4976882;28;20242;-91
2021/04/21 09:52:45;;;;;;;5.00;3.00;;;9.60;99.90;;;;;;4977212;28;20244;-91
2021/04/21 09:55:16;;;;;;;5.30;3.40;;;9.50;99.90;;;;;;4977104;28;20241;-91
2021/04/21 09:57:48;;;;;;;5.67;3.20;;;9.40;99.90;;;;;;4976306;28;20239;-90
2021/04/21 10:00:19;;;;;;;3.30;2.97;;;9.40;99.90;;;;;;4979068;28;20245;-90
2021/04/21 10:02:50;;;;;;;5.00;3.33;;;9.30;99.90;;;;;;4978945;28;20219;-90
2021/04/21 10:05:26;;;;;;;5.50;3.10;;;9.30;99.90;;;;;;4976852;28;20582;-90
2021/04/21 10:08:16;;;;;;;3.70;3.13;;;9.30;99.90;;;;;;4976711;28;20230;-91
2021/04/21 10:10:48;;;;;;;4.53;3.20;;;9.20;99.90;;;;;;4978546;28;20256;-91
2021/04/21 10:13:21;;;;;;;4.77;3.90;;;9.20;99.90;;;;;;4974938;28;20210;-90
2021/04/21 10:16:10;;;;;;;3.60;3.13;;;9.20;99.90;;;;;;4979772;28;20716;-91
2021/04/21 10:18:42;;;;;;;7.73;3.03;;;9.10;99.90;;;;;;4979342;28;20237;-91
2021/04/21 10:21:17;;;;;;;5.57;3.47;;;9.10;99.90;;;;;;4978178;28;20322;-91
2021/04/21 10:23:48;;;;;;;5.27;3.43;;;9.00;99.90;;;;;;4976812;28;20717;-91
2021/04/21 10:26:19;;;;;;;4.10;3.20;;;9.00;99.90;;;;;;4980638;28;20282;-92
2021/04/21 10:28:50;;;;;;;3.97;2.90;;;9.00;99.90;;;;;;4976084;28;20735;-91
2021/04/21 10:31:22;;;;;;;7.47;3.20;;;9.00;99.90;;;;;;4979435;28;20658;-92
2021/04/21 10:33:54;;;;;;;5.40;3.20;;;9.00;99.90;;;;;;4983909;28;20203;-91
2021/04/21 10:36:27;;;;;;;4.33;3.27;;;9.00;99.90;;;;;;4985067;28;20210;-91
2021/04/21 10:38:58;;;;;;;4.70;2.93;;;9.00;99.90;;;;;;4979852;28;20605;-91
2021/04/21 10:41:35;;;;;;;4.00;3.47;;;8.90;99.90;;;;;;4976292;28;20221;-91
2021/04/21 10:44:16;;;;;;;4.80;3.63;;;8.80;99.90;;;;;;4976870;28;20203;-91
2021/04/21 10:47:10;;;;;;;6.10;3.27;;;8.80;99.90;;;;;;4980624;28;20210;-90
2021/04/21 10:49:54;;;;;;;3.83;3.43;;;8.80;99.90;;;;;;4990630;28;20211;-90
2021/04/21 10:52:40;;;;;;;4.23;3.07;;;8.80;99.90;;;;;;4997365;28;20277;-90
2021/04/21 10:55:41;;;;;;;3.83;3.43;;;8.80;99.90;;;;;;4996144;28;20229;-90
2021/04/21 10:58:13;;;;;;;4.90;3.50;;;8.80;99.90;;;;;;4980772;28;20211;-90
2021/04/21 11:00:50;;;;;;;4.70;3.20;;;8.70;99.90;;;;;;4980288;28;20254;-91
2021/04/21 11:03:25;;;;;;;3.70;3.27;;;8.70;99.90;;;;;;4980576;28;20242;-90
2021/04/21 11:06:02;;;;;;;3.23;2.93;;;8.70;99.90;;;;;;4980681;28;20214;-90
2021/04/21 11:08:55;;;;;;;3.43;2.90;;;8.70;99.90;;;;;;4980475;28;20650;-90
2021/04/21 11:11:36;;;;;;;3.57;3.10;;;8.70;99.90;;;;;;4979502;28;20234;-91
2021/04/21 11:14:08;;;;;;;6.60;3.40;;;8.60;99.90;;;;;;4979362;28;20222;-90
2021/04/21 11:16:47;;;;;;;4.27;3.47;;;8.60;99.90;;;;;;4989095;28;20360;-91
2021/04/21 11:19:31;;;;;;;5.77;3.50;;;8.50;99.90;;;;;;4984027;28;20220;-91
2021/04/21 11:22:27;;;;;;;4.20;3.30;;;8.50;99.90;;;;;;4979782;28;20231;-90
2021/04/21 11:25:25;;;;;;;4.20;3.53;;;8.40;99.90;;;;;;4979735;28;20286;-92
2021/04/21 11:27:58;;;;;;;4.60;3.30;;;8.40;99.90;;;;;;4980879;28;20266;-91
2021/04/21 11:30:56;;;;;;;3.40;3.07;;;8.40;99.90;;;;;;4981575;28;20229;-91
2021/04/21 11:33:57;;;;;;;3.97;3.27;;;8.30;99.90;;;;;;4982328;28;20688;-91
2021/04/21 11:36:53;;;;;;;4.93;3.50;;;8.30;99.90;;;;;;4986857;28;20211;-91
2021/04/21 11:39:55;;;;;;;4.87;3.27;;;8.30;99.90;;;;;;4987085;28;20203;-90
2021/04/21 11:42:35;;;;;;;3.77;3.23;;;8.20;99.90;;;;;;4988147;28;20213;-91
2021/04/21 11:45:22;;;;;;;4.20;3.13;;;8.10;99.90;;;;;;4982221;28;20227;-90
2021/04/21 11:47:54;;;;;;;3.53;3.00;;;8.10;99.90;;;;;;4981679;28;20268;-90
2021/04/21 11:50:30;;;;;;;3.97;3.23;;;8.10;99.90;;;;;;4980291;28;20217;-91
2021/04/21 11:53:04;;;;;;;3.47;3.17;;;8.00;99.90;;;;;;4977717;28;20261;-90
2021/04/21 11:55:38;;;;;;;3.67;3.20;;;8.00;99.90;;;;;;4979256;28;20573;-90
2021/04/21 11:58:11;;;;;;;3.63;3.30;;;7.90;99.90;;;;;;4978119;28;20202;-91
2021/04/21 12:00:44;;;;;;;3.70;3.37;;;7.90;99.90;;;;;;4978865;28;20214;-90
2021/04/21 12:03:17;;;;;;;5.90;3.37;;;7.90;99.90;;;;;;4982728;28;20262;-91
2021/04/21 12:05:49;;;;;;;3.70;3.30;;;7.80;99.90;;;;;;4982805;28;20272;-90
2021/04/21 12:08:21;;;;;;;5.67;3.37;;;7.80;99.90;;;;;;4981226;28;20251;-92
2021/04/21 12:10:53;;;;;;;7.80;3.87;;;7.80;99.90;;;;;;4978922;28;20245;-91
2021/04/21 12:13:30;;;;;;;6.03;3.43;;;7.80;99.90;;;;;;4977511;28;20254;-90
2021/04/21 12:16:08;;;;;;;5.17;3.50;;;7.80;99.90;;;;;;4978531;28;20393;-91
2021/04/21 12:18:41;;;;;;;6.07;3.83;;;7.80;99.90;;;;;;4983108;28;20246;-91
2021/04/21 12:21:26;;;;;;;4.57;3.60;;;7.90;99.90;;;;;;4979625;28;20299;-92
2021/04/21 12:24:00;;;;;;;5.93;3.70;;;7.80;99.90;;;;;;4980211;28;20267;-91
2021/04/21 12:26:33;;;;;;;7.00;3.63;;;7.80;99.90;;;;;;4978911;28;20300;-91
2021/04/21 12:29:10;;;;;;;4.27;3.63;;;7.80;99.90;;;;;;4978801;28;20221;-91
2021/04/21 12:31:41;;;;;;;5.57;3.57;;;7.70;99.90;;;;;;4979100;28;20322;-91
2021/04/21 12:34:15;;;;;;;5.43;4.30;;;7.70;99.90;;;;;;4978803;28;20638;-91
2021/04/21 12:36:45;;;;;;;4.83;3.60;;;7.70;99.90;;;;;;4978387;28;20636;-91
2021/04/21 12:39:17;;;;;;;6.40;3.77;;;7.70;99.90;;;;;;4979229;28;20216;-91
2021/04/21 12:42:01;;;;;;;6.90;3.80;;;7.70;99.90;;;;;;4977631;28;20227;-93
2021/04/21 12:44:40;;;;;;;4.67;3.80;;;7.70;99.90;;;;;;4976667;28;20257;-91
2021/04/21 12:47:14;;;;;;;4.17;3.57;;;7.60;99.90;;;;;;4976942;28;20587;-90
2021/04/21 12:49:47;;;;;;;3.97;3.57;;;7.60;99.90;;;;;;4977356;28;20255;-91
2021/04/21 12:52:19;;;;;;;4.53;3.50;;;7.50;99.90;;;;;;4975724;28;20695;-91
2021/04/21 12:54:53;;;;;;;5.27;3.90;;;7.50;99.90;;;;;;4977930;28;20211;-91
2021/04/21 12:57:25;;;;;;;4.07;3.67;;;7.40;99.90;;;;;;4978022;28;20234;-90
2021/04/21 12:59:59;;;;;;;5.17;3.60;;;7.40;99.90;;;;;;4977721;28;20218;-91
2021/04/21 13:02:45;;;;;;;6.30;3.93;;;7.40;99.90;;;;;;4978341;28;20208;-91
2021/04/21 13:05:19;;;;;;;5.93;3.83;;;7.40;99.90;;;;;;4978592;28;20665;-91
2021/04/21 13:07:50;;;;;;;5.17;3.80;;;7.40;99.90;;;;;;4978421;28;20237;-91
2021/04/21 13:10:21;;;;;;;6.37;4.13;;;7.40;99.90;;;;;;4978292;28;20279;-90
2021/04/21 13:13:03;;;;;;;5.50;4.27;;;7.40;99.90;;;;;;4992753;28;20218;-90
2021/04/21 13:15:39;;;;;;;4.43;3.60;;;7.40;99.90;;;;;;4998271;28;20209;-91
2021/04/21 13:18:15;;;;;;;7.90;4.07;;;7.30;99.90;;;;;;4981526;28;20250;-91
2021/04/21 13:20:48;;;;;;;4.40;3.87;;;7.40;99.90;;;;;;4979367;28;20700;-91
2021/04/21 13:23:21;;;;;;;4.03;3.67;;;7.40;99.90;;;;;;4986866;28;20210;-92
2021/04/21 13:26:01;;;;;;;5.60;4.17;;;7.40;99.90;;;;;;4991635;28;20199;-91
2021/04/21 13:28:37;;;;;;;6.33;4.13;;;7.30;99.90;;;;;;4991987;28;20236;-91
2021/04/21 13:31:15;;;;;;;4.27;3.57;;;7.30;99.90;;;;;;4981095;28;20236;-92
2021/04/21 13:33:47;;;;;;;4.77;4.00;;;7.30;99.90;;;;;;4981177;28;20248;-91
2021/04/21 13:36:18;;;;;;;4.27;3.53;;;7.30;99.90;;;;;;4981471;28;20227;-92
2021/04/21 13:38:48;;;;;;;4.47;3.73;;;7.30;99.90;;;;;;4985348;28;20222;-92
2021/04/21 13:41:21;;;;;;;5.00;3.90;;;7.30;99.90;;;;;;4986012;28;20209;-91
2021/04/21 13:43:50;;;;;;;5.97;4.10;;;7.30;99.90;;;;;;4984781;28;20234;-92
2021/04/21 13:46:23;;;;;;;6.43;4.00;;;7.30;99.90;;;;;;4979043;28;20203;-90